createdAt,value
2017-06-09T00:00:33.505Z,0
2017-06-09T00:01:43.803Z,0
2017-06-09T00:02:54.102Z,0
2017-06-09T00:04:04.395Z,0
2017-06-09T00:05:14.699Z,0
2017-06-09T00:06:25.235Z,0
2017-06-09T00:07:35.225Z,0
2017-06-09T00:08:45.502Z,0
2017-06-09T00:09:55.465Z,0
2017-06-09T00:11:05.746Z,0
2017-06-09T00:12:16.285Z,0
2017-06-09T00:13:26.574Z,0
2017-06-09T00:14:36.851Z,0
2017-06-09T00:15:46.822Z,0
2017-06-09T00:16:56.802Z,0
2017-06-09T00:18:07.024Z,0
2017-06-09T00:19:16.986Z,0
2017-06-09T00:20:27.266Z,0
2017-06-09T00:21:37.553Z,0
2017-06-09T00:22:47.831Z,0
2017-06-09T00:23:57.734Z,0
2017-06-09T00:25:08.012Z,0
2017-06-09T00:26:17.988Z,0
2017-06-09T00:27:28.272Z,0
2017-06-09T00:28:38.553Z,0
2017-06-09T00:29:49.094Z,0
2017-06-09T00:30:59.374Z,0
2017-06-09T00:32:09.653Z,0
2017-06-09T00:33:19.929Z,0
2017-06-09T00:34:30.214Z,0
2017-06-09T00:35:40.743Z,0
2017-06-09T00:36:50.724Z,0
2017-06-09T00:38:01.005Z,0
2017-06-09T00:39:11.295Z,0
2017-06-09T00:40:21.572Z,0
2017-06-09T00:41:32.120Z,0
2017-06-09T00:42:42.407Z,0
2017-06-09T00:43:52.692Z,0
2017-06-09T00:45:02.657Z,0
2017-06-09T00:46:12.951Z,0
2017-06-09T00:47:23.477Z,0
2017-06-09T00:48:33.753Z,0
2017-06-09T00:49:43.102Z,0
2017-06-09T00:50:53.380Z,0
2017-06-09T00:52:03.352Z,0
2017-06-09T00:53:13.887Z,0
2017-06-09T00:54:24.161Z,0
2017-06-09T00:55:34.443Z,0
2017-06-09T00:56:44.450Z,0
2017-06-09T00:57:54.736Z,0
2017-06-09T00:59:04.960Z,0
2017-06-09T01:00:15.237Z,0
2017-06-09T01:01:25.515Z,0
2017-06-09T01:02:35.515Z,0
2017-06-09T01:03:45.798Z,0
2017-06-09T01:04:56.381Z,0
2017-06-09T01:06:06.654Z,0
2017-06-09T01:07:16.622Z,0
2017-06-09T01:08:26.896Z,0
2017-06-09T01:09:37.190Z,0
2017-06-09T01:10:47.410Z,0
2017-06-09T01:11:57.686Z,0
2017-06-09T01:13:07.977Z,0
2017-06-09T01:14:18.262Z,0
2017-06-09T01:15:28.556Z,0
2017-06-09T01:16:39.087Z,0
2017-06-09T01:17:49.056Z,0
2017-06-09T01:18:58.711Z,0
2017-06-09T01:20:08.998Z,0
2017-06-09T01:21:19.274Z,0
2017-06-09T01:22:29.517Z,0
2017-06-09T01:23:39.491Z,0
2017-06-09T01:24:49.770Z,0
2017-06-09T01:25:59.734Z,0
2017-06-09T01:27:10.031Z,0
2017-06-09T01:28:20.565Z,0
2017-06-09T01:29:30.535Z,0
2017-06-09T01:30:40.812Z,0
2017-06-09T01:31:51.103Z,0
2017-06-09T01:33:01.388Z,0
2017-06-09T01:34:11.920Z,0
2017-06-09T01:35:21.880Z,0
2017-06-09T01:36:32.157Z,0
2017-06-09T01:37:41.820Z,0
2017-06-09T01:38:52.099Z,0
2017-06-09T01:40:02.635Z,0
2017-06-09T01:41:12.915Z,0
2017-06-09T01:42:22.880Z,0
2017-06-09T01:43:32.849Z,0
2017-06-09T01:44:43.128Z,0
2017-06-09T01:45:53.662Z,0
2017-06-09T01:47:03.956Z,0
2017-06-09T01:48:14.228Z,0
2017-06-09T01:49:24.236Z,0
2017-06-09T01:50:34.507Z,0
2017-06-09T01:51:45.035Z,0
2017-06-09T01:52:55.331Z,0
2017-06-09T01:54:05.609Z,0
2017-06-09T01:55:15.582Z,0
2017-06-09T01:56:25.859Z,0
2017-06-09T01:57:36.404Z,0
2017-06-09T01:58:46.686Z,0
2017-06-09T01:59:56.339Z,0
2017-06-09T02:01:06.618Z,0
2017-06-09T02:02:16.892Z,0
2017-06-09T02:03:27.416Z,0
2017-06-09T02:04:37.069Z,0
2017-06-09T02:05:47.043Z,0
2017-06-09T02:06:57.318Z,0
2017-06-09T02:08:07.296Z,0
2017-06-09T02:09:17.827Z,0
2017-06-09T02:10:28.104Z,0
2017-06-09T02:11:38.386Z,0
2017-06-09T02:12:48.663Z,0
2017-06-09T02:13:58.939Z,0
2017-06-09T02:15:09.466Z,0
2017-06-09T02:16:19.744Z,0
2017-06-09T02:17:30.023Z,0
2017-06-09T02:18:40.303Z,0
2017-06-09T02:19:50.586Z,0
2017-06-09T02:21:00.805Z,0
2017-06-09T02:22:10.773Z,0
2017-06-09T02:23:21.057Z,0
2017-06-09T02:24:31.344Z,0
2017-06-09T02:25:41.619Z,0
2017-06-09T02:26:51.845Z,0
2017-06-09T02:28:01.816Z,0
2017-06-09T02:29:12.099Z,4
2017-06-09T02:30:22.084Z,0
2017-06-09T02:31:32.360Z,0
2017-06-09T02:32:42.889Z,0
2017-06-09T02:33:53.169Z,4
2017-06-09T02:35:03.152Z,4
2017-06-09T02:36:13.435Z,0
2017-06-09T02:37:23.721Z,0
2017-06-09T02:38:34.244Z,0
2017-06-09T02:39:43.896Z,4
2017-06-09T02:40:54.175Z,4
2017-06-09T02:42:03.837Z,4
2017-06-09T02:43:14.110Z,4
2017-06-09T02:44:24.641Z,4
2017-06-09T02:45:34.926Z,4
2017-06-09T02:46:45.201Z,4
2017-06-09T02:47:55.481Z,8
2017-06-09T02:49:05.761Z,4
2017-06-09T02:50:16.290Z,4
2017-06-09T02:51:26.265Z,8
2017-06-09T02:52:36.543Z,8
2017-06-09T02:53:46.815Z,8
2017-06-09T02:54:56.796Z,12
2017-06-09T02:56:07.012Z,16
2017-06-09T02:57:17.292Z,20
2017-06-09T02:58:27.255Z,24
2017-06-09T02:59:37.584Z,24
2017-06-09T03:00:47.860Z,28
2017-06-09T03:01:58.402Z,36
2017-06-09T03:03:08.688Z,40
2017-06-09T03:04:18.972Z,52
2017-06-09T03:05:28.935Z,60
2017-06-09T03:06:39.210Z,60
2017-06-09T03:07:49.735Z,60
2017-06-09T03:09:00.034Z,56
2017-06-09T03:10:10.009Z,52
2017-06-09T03:11:20.287Z,56
2017-06-09T03:12:30.565Z,56
2017-06-09T03:13:41.136Z,72
2017-06-09T03:14:51.420Z,92
2017-06-09T03:16:01.707Z,96
2017-06-09T03:17:11.993Z,92
2017-06-09T03:18:22.261Z,76
2017-06-09T03:19:32.795Z,64
2017-06-09T03:20:42.769Z,60
2017-06-09T03:21:53.054Z,92
2017-06-09T03:23:03.366Z,128
2017-06-09T03:24:13.658Z,156
2017-06-09T03:25:24.191Z,176
2017-06-09T03:26:34.459Z,180
2017-06-09T03:27:44.434Z,192
2017-06-09T03:28:54.727Z,200
2017-06-09T03:30:04.386Z,160
2017-06-09T03:31:14.297Z,144
2017-06-09T03:32:24.612Z,128
2017-06-09T03:33:34.893Z,128
2017-06-09T03:34:45.182Z,120
2017-06-09T03:35:55.459Z,128
2017-06-09T03:37:05.984Z,140
2017-06-09T03:38:16.261Z,136
2017-06-09T03:39:25.917Z,96
2017-06-09T03:40:36.200Z,76
2017-06-09T03:41:46.485Z,60
2017-06-09T03:42:57.236Z,60
2017-06-09T03:44:06.916Z,60
2017-06-09T03:45:17.190Z,64
2017-06-09T03:46:27.158Z,76
2017-06-09T03:47:37.440Z,80
2017-06-09T03:48:47.965Z,80
2017-06-09T03:49:58.242Z,980
2017-06-09T03:51:08.514Z,948
2017-06-09T03:52:18.805Z,1012
2017-06-09T03:53:29.080Z,1132
2017-06-09T03:54:39.611Z,1112
2017-06-09T03:55:49.888Z,1092
2017-06-09T03:57:00.174Z,1076
2017-06-09T03:58:10.450Z,1080
2017-06-09T03:59:20.412Z,1120
2017-06-09T04:00:30.939Z,1128
2017-06-09T04:01:40.599Z,1220
2017-06-09T04:02:50.889Z,1396
2017-06-09T04:04:01.176Z,1708
2017-06-09T04:05:11.461Z,1808
2017-06-09T04:06:21.992Z,1964
2017-06-09T04:07:32.314Z,1556
2017-06-09T04:08:42.604Z,1872
2017-06-09T04:09:52.891Z,2064
2017-06-09T04:11:03.178Z,1696
2017-06-09T04:12:13.710Z,1704
2017-06-09T04:13:23.986Z,1908
2017-06-09T04:14:34.259Z,2300
2017-06-09T04:15:44.231Z,2820
2017-06-09T04:16:54.526Z,3504
2017-06-09T04:18:05.052Z,4168
2017-06-09T04:19:15.336Z,4504
2017-06-09T04:20:25.343Z,4448
2017-06-09T04:21:35.320Z,4508
2017-06-09T04:22:45.626Z,4444
2017-06-09T04:23:56.154Z,4480
2017-06-09T04:25:06.132Z,4568
2017-06-09T04:26:16.531Z,4652
2017-06-09T04:27:26.500Z,4620
2017-06-09T04:28:36.483Z,4680
2017-06-09T04:29:46.712Z,4664
2017-06-09T04:30:56.997Z,4692
2017-06-09T04:32:06.665Z,4700
2017-06-09T04:33:16.958Z,4640
2017-06-09T04:34:27.236Z,4628
2017-06-09T04:35:37.769Z,4624
2017-06-09T04:36:48.050Z,4840
2017-06-09T04:37:58.345Z,4980
2017-06-09T04:39:08.633Z,4892
2017-06-09T04:40:18.919Z,4984
2017-06-09T04:41:29.449Z,5044
2017-06-09T04:42:39.734Z,4984
2017-06-09T04:43:50.020Z,5128
2017-06-09T04:44:59.999Z,5172
2017-06-09T04:46:10.282Z,5056
2017-06-09T04:47:20.825Z,5088
2017-06-09T04:48:31.105Z,5088
2017-06-09T04:49:41.397Z,5024
2017-06-09T04:50:51.698Z,5124
2017-06-09T04:52:01.673Z,5140
2017-06-09T04:53:11.906Z,5232
2017-06-09T04:54:21.885Z,5224
2017-06-09T04:55:32.223Z,5288
2017-06-09T04:56:42.507Z,5100
2017-06-09T04:57:52.491Z,5000
2017-06-09T04:59:03.060Z,5020
2017-06-09T05:00:13.351Z,4932
2017-06-09T05:01:23.321Z,4740
2017-06-09T05:02:33.602Z,4640
2017-06-09T05:03:43.896Z,4900
2017-06-09T05:04:54.124Z,4832
2017-06-09T05:06:04.424Z,4788
2017-06-09T05:07:14.422Z,4904
2017-06-09T05:08:24.095Z,4832
2017-06-09T05:09:34.072Z,4800
2017-06-09T05:10:44.304Z,4764
2017-06-09T05:11:54.598Z,4848
2017-06-09T05:13:04.893Z,4928
2017-06-09T05:14:15.176Z,5024
2017-06-09T05:15:25.148Z,5076
2017-06-09T05:16:35.692Z,5112
2017-06-09T05:17:45.995Z,5056
2017-06-09T05:18:56.282Z,4952
2017-06-09T05:20:06.280Z,4868
2017-06-09T05:21:16.566Z,4880
2017-06-09T05:22:26.792Z,4792
2017-06-09T05:23:36.779Z,4744
2017-06-09T05:24:47.067Z,4592
2017-06-09T05:25:57.041Z,4604
2017-06-09T05:27:07.319Z,4592
2017-06-09T05:28:17.849Z,4576
2017-06-09T05:29:27.824Z,4524
2017-06-09T05:30:37.803Z,4504
2017-06-09T05:31:47.768Z,4408
2017-06-09T05:32:58.060Z,4360
2017-06-09T05:34:08.593Z,4276
2017-06-09T05:35:18.890Z,4164
2017-06-09T05:36:28.889Z,4072
2017-06-09T05:37:39.188Z,4128
2017-06-09T05:38:48.851Z,4084
2017-06-09T05:39:59.435Z,4028
2017-06-09T05:41:09.734Z,4032
2017-06-09T05:42:19.707Z,3972
2017-06-09T05:43:29.987Z,3988
2017-06-09T05:44:40.262Z,3960
2017-06-09T05:45:50.803Z,4024
2017-06-09T05:47:00.776Z,4032
2017-06-09T05:48:11.072Z,3964
2017-06-09T05:49:21.355Z,4040
2017-06-09T05:50:31.632Z,4024
2017-06-09T05:51:42.168Z,4036
2017-06-09T05:52:52.450Z,4104
2017-06-09T05:54:02.738Z,4112
2017-06-09T05:55:13.022Z,4088
2017-06-09T05:56:23.312Z,4056
2017-06-09T05:57:33.877Z,3844
2017-06-09T05:58:43.855Z,3720
2017-06-09T05:59:54.147Z,3652
2017-06-09T06:01:04.441Z,3580
2017-06-09T06:02:14.445Z,3572
2017-06-09T06:03:24.985Z,3560
2017-06-09T06:04:35.276Z,3584
2017-06-09T06:05:45.266Z,3496
2017-06-09T06:06:55.551Z,3572
2017-06-09T06:08:05.847Z,3520
2017-06-09T06:09:16.382Z,3456
2017-06-09T06:10:26.659Z,3484
2017-06-09T06:11:36.944Z,3524
2017-06-09T06:12:47.235Z,3516
2017-06-09T06:13:56.597Z,3544
2017-06-09T06:15:06.826Z,3552
2017-06-09T06:16:17.112Z,3556
2017-06-09T06:17:27.085Z,3532
2017-06-09T06:18:37.373Z,3508
2017-06-09T06:19:47.660Z,3496
2017-06-09T06:20:58.197Z,3464
2017-06-09T06:22:08.184Z,3456
2017-06-09T06:23:18.149Z,3440
2017-06-09T06:24:28.439Z,3428
2017-06-09T06:25:38.099Z,3396
2017-06-09T06:26:48.632Z,3360
2017-06-09T06:27:58.627Z,3344
2017-06-09T06:29:08.924Z,3332
2017-06-09T06:30:19.500Z,3324
2017-06-09T06:31:29.783Z,3292
2017-06-09T06:32:40.326Z,3308
2017-06-09T06:33:50.300Z,3372
2017-06-09T06:35:00.595Z,3280
2017-06-09T06:36:10.577Z,3336
2017-06-09T06:37:20.559Z,3460
2017-06-09T06:38:31.103Z,3468
2017-06-09T06:39:41.078Z,3344
2017-06-09T06:40:51.055Z,2956
2017-06-09T06:42:01.357Z,3156
2017-06-09T06:43:11.641Z,3144
2017-06-09T06:44:21.870Z,3192
2017-06-09T06:45:32.160Z,3380
2017-06-09T06:46:42.500Z,3384
2017-06-09T06:47:52.482Z,3464
2017-06-09T06:49:02.757Z,3624
2017-06-09T06:50:12.984Z,3644
2017-06-09T06:51:22.992Z,3748
2017-06-09T06:52:33.281Z,3692
2017-06-09T06:53:43.570Z,3720
2017-06-09T06:54:53.847Z,3608
2017-06-09T06:56:04.080Z,3576
2017-06-09T06:57:13.749Z,3432
2017-06-09T06:58:24.041Z,3344
2017-06-09T06:59:34.017Z,3136
2017-06-09T07:00:44.300Z,3016
2017-06-09T07:01:54.847Z,3112
2017-06-09T07:03:05.140Z,3132
2017-06-09T07:04:15.428Z,3148
2017-06-09T07:05:25.092Z,3212
2017-06-09T07:06:35.395Z,3384
2017-06-09T07:07:45.317Z,3396
2017-06-09T07:08:55.606Z,3176
2017-06-09T07:10:05.910Z,2872
2017-06-09T07:11:15.578Z,2892
2017-06-09T07:12:25.560Z,2696
2017-06-09T07:13:35.781Z,2712
2017-06-09T07:14:46.068Z,2772
2017-06-09T07:15:56.360Z,2820
2017-06-09T07:17:06.650Z,2924
2017-06-09T07:18:16.328Z,2980
2017-06-09T07:19:26.858Z,2912
2017-06-09T07:20:37.146Z,3012
2017-06-09T07:21:47.444Z,3064
2017-06-09T07:22:57.735Z,3068
2017-06-09T07:24:08.015Z,2936
2017-06-09T07:25:18.570Z,2904
2017-06-09T07:26:28.867Z,2700
2017-06-09T07:27:38.534Z,2776
2017-06-09T07:28:48.824Z,2840
2017-06-09T07:29:59.123Z,2772
2017-06-09T07:31:09.678Z,2676
2017-06-09T07:32:19.957Z,2576
2017-06-09T07:33:30.304Z,2464
2017-06-09T07:34:40.286Z,2388
2017-06-09T07:35:50.262Z,2352
2017-06-09T07:37:00.798Z,2296
2017-06-09T07:38:11.100Z,2296
2017-06-09T07:39:21.078Z,2300
2017-06-09T07:40:30.740Z,2300
2017-06-09T07:41:40.712Z,2300
2017-06-09T07:42:50.933Z,2292
2017-06-09T07:44:01.233Z,2280
2017-06-09T07:45:10.897Z,2228
2017-06-09T07:46:20.912Z,2232
2017-06-09T07:47:30.889Z,2292
2017-06-09T07:48:41.429Z,2292
2017-06-09T07:49:51.716Z,2340
2017-06-09T07:51:01.699Z,2380
2017-06-09T07:52:12.014Z,2400
2017-06-09T07:53:22.305Z,2404
2017-06-09T07:54:32.851Z,2372
2017-06-09T07:55:43.145Z,2336
2017-06-09T07:56:53.468Z,2304
2017-06-09T07:58:03.807Z,2264
2017-06-09T07:59:14.095Z,2228
2017-06-09T08:00:24.315Z,2188
2017-06-09T08:01:34.596Z,2152
2017-06-09T08:02:44.577Z,2136
2017-06-09T08:03:54.795Z,2108
2017-06-09T08:05:04.803Z,2148
2017-06-09T08:06:15.338Z,2176
2017-06-09T08:07:25.629Z,2160
2017-06-09T08:08:35.604Z,2184
2017-06-09T08:09:45.897Z,2184
2017-06-09T08:10:56.188Z,2212
2017-06-09T08:12:06.426Z,2220
2017-06-09T08:13:16.709Z,2236
2017-06-09T08:14:27.000Z,2260
2017-06-09T08:15:37.301Z,2280
2017-06-09T08:16:47.273Z,2268
2017-06-09T08:17:57.193Z,2228
2017-06-09T08:19:06.853Z,2160
2017-06-09T08:20:17.146Z,2132
2017-06-09T08:21:27.120Z,2088
2017-06-09T08:22:37.419Z,2060
2017-06-09T08:23:47.965Z,2076
2017-06-09T08:24:58.256Z,2064
2017-06-09T08:26:08.550Z,1996
2017-06-09T08:27:18.847Z,1988
2017-06-09T08:28:28.854Z,1980
2017-06-09T08:29:39.134Z,1996
2017-06-09T08:30:49.120Z,2004
2017-06-09T08:31:59.104Z,2024
2017-06-09T08:33:09.400Z,2036
2017-06-09T08:34:19.708Z,2024
2017-06-09T08:35:30.309Z,2008
2017-06-09T08:36:40.608Z,1976
2017-06-09T08:37:50.597Z,1944
2017-06-09T08:39:00.910Z,1872
2017-06-09T08:40:11.201Z,1820
2017-06-09T08:41:21.742Z,1760
2017-06-09T08:42:31.725Z,1712
2017-06-09T08:43:42.017Z,1664
2017-06-09T08:44:52.004Z,1636
2017-06-09T08:46:02.293Z,1620
2017-06-09T08:47:12.834Z,1596
2017-06-09T08:48:22.805Z,1604
2017-06-09T08:49:33.094Z,1624
2017-06-09T08:50:43.383Z,1624
2017-06-09T08:51:53.350Z,1628
2017-06-09T08:53:03.902Z,1620
2017-06-09T08:54:14.192Z,1624
2017-06-09T08:55:24.474Z,1616
2017-06-09T08:56:34.762Z,1608
2017-06-09T08:57:44.786Z,1588
2017-06-09T08:58:55.340Z,1576
2017-06-09T09:00:05.633Z,1568
2017-06-09T09:01:15.311Z,1556
2017-06-09T09:02:25.606Z,1544
2017-06-09T09:03:35.606Z,1532
2017-06-09T09:04:46.167Z,1504
2017-06-09T09:05:56.463Z,1492
2017-06-09T09:07:06.761Z,1468
2017-06-09T09:08:16.733Z,1448
2017-06-09T09:09:26.710Z,1432
2017-06-09T09:10:37.243Z,1412
2017-06-09T09:11:47.538Z,1396
2017-06-09T09:12:57.831Z,1388
2017-06-09T09:14:08.124Z,1380
2017-06-09T09:15:18.420Z,1360
2017-06-09T09:16:28.650Z,1344
2017-06-09T09:17:38.931Z,1336
2017-06-09T09:18:49.226Z,1328
2017-06-09T09:19:59.513Z,1312
2017-06-09T09:21:09.485Z,1304
2017-06-09T09:22:19.756Z,1288
2017-06-09T09:23:30.056Z,1276
2017-06-09T09:24:40.347Z,1268
2017-06-09T09:25:50.626Z,1256
2017-06-09T09:27:00.006Z,1248
2017-06-09T09:28:10.230Z,1244
2017-06-09T09:29:20.512Z,1236
2017-06-09T09:30:30.494Z,1240
2017-06-09T09:31:40.472Z,1232
2017-06-09T09:32:50.753Z,1224
2017-06-09T09:34:01.284Z,1224
2017-06-09T09:35:11.269Z,1216
2017-06-09T09:36:21.565Z,1212
2017-06-09T09:37:31.855Z,1208
2017-06-09T09:38:42.143Z,1204
2017-06-09T09:39:52.369Z,1200
2017-06-09T09:41:02.338Z,1200
2017-06-09T09:42:12.628Z,1192
2017-06-09T09:43:22.913Z,1196
2017-06-09T09:44:32.893Z,1192
2017-06-09T09:45:43.428Z,1192
2017-06-09T09:46:53.723Z,1192
2017-06-09T09:48:03.385Z,1196
2017-06-09T09:49:13.678Z,1192
2017-06-09T09:50:23.654Z,1188
2017-06-09T09:51:34.183Z,1188
2017-06-09T09:52:44.470Z,1184
2017-06-09T09:53:54.751Z,1180
2017-06-09T09:55:05.039Z,1180
2017-06-09T09:56:15.329Z,1172
2017-06-09T09:57:25.666Z,1168
2017-06-09T09:58:35.642Z,1160
2017-06-09T09:59:45.934Z,1156
2017-06-09T10:00:56.230Z,1148
2017-06-09T10:02:05.888Z,1148
2017-06-09T10:03:16.117Z,1144
2017-06-09T10:04:25.779Z,1140
2017-06-09T10:05:36.066Z,1136
2017-06-09T10:06:46.347Z,1136
2017-06-09T10:07:56.651Z,1132
2017-06-09T10:09:07.192Z,1132
2017-06-09T10:10:17.479Z,1132
2017-06-09T10:11:27.767Z,1128
2017-06-09T10:12:38.067Z,1124
2017-06-09T10:13:48.379Z,1124
2017-06-09T10:14:58.614Z,1116
2017-06-09T10:16:08.909Z,1112
2017-06-09T10:17:18.886Z,1116
2017-06-09T10:18:28.860Z,1112
2017-06-09T10:19:39.159Z,1112
2017-06-09T10:20:49.701Z,1108
2017-06-09T10:22:00.001Z,1104
2017-06-09T10:23:10.279Z,1100
2017-06-09T10:24:19.620Z,1100
2017-06-09T10:25:29.924Z,1096
2017-06-09T10:26:40.154Z,1092
2017-06-09T10:27:50.131Z,1096
2017-06-09T10:29:00.414Z,1092
2017-06-09T10:30:10.396Z,1088
2017-06-09T10:31:20.698Z,1080
2017-06-09T10:32:31.224Z,1080
2017-06-09T10:33:41.508Z,1080
2017-06-09T10:34:51.794Z,1076
2017-06-09T10:36:01.786Z,1072
2017-06-09T10:37:12.081Z,1076
2017-06-09T10:38:22.636Z,1072
2017-06-09T10:39:32.638Z,1064
2017-06-09T10:40:42.626Z,1064
2017-06-09T10:41:52.934Z,1068
2017-06-09T10:43:03.225Z,1072
2017-06-09T10:44:13.764Z,1064
2017-06-09T10:45:24.045Z,1056
2017-06-09T10:46:34.025Z,1068
2017-06-09T10:47:44.045Z,1104
2017-06-09T10:48:54.316Z,1132
2017-06-09T10:50:04.545Z,1160
2017-06-09T10:51:14.837Z,1192
2017-06-09T10:52:25.132Z,1216
2017-06-09T10:53:35.417Z,1212
2017-06-09T10:54:45.706Z,1200
2017-06-09T10:55:56.244Z,1176
2017-06-09T10:57:05.913Z,1184
2017-06-09T10:58:16.206Z,1172
2017-06-09T10:59:26.497Z,1200
2017-06-09T11:00:36.800Z,1256
2017-06-09T11:01:47.042Z,1344
2017-06-09T11:02:57.366Z,1452
2017-06-09T11:04:07.327Z,1600
2017-06-09T11:05:17.610Z,1760
2017-06-09T11:06:27.590Z,1908
2017-06-09T11:07:38.188Z,2012
2017-06-09T11:08:48.478Z,2076
2017-06-09T11:09:58.769Z,2136
2017-06-09T11:11:08.750Z,2184
2017-06-09T11:12:19.055Z,2204
2017-06-09T11:13:29.625Z,2164
2017-06-09T11:14:39.598Z,2108
2017-06-09T11:15:49.884Z,2044
2017-06-09T11:17:00.189Z,1976
2017-06-09T11:18:10.493Z,1908
2017-06-09T11:19:21.025Z,1832
2017-06-09T11:20:31.317Z,1776
2017-06-09T11:21:41.609Z,1712
2017-06-09T11:22:51.598Z,1660
2017-06-09T11:24:01.580Z,1624
2017-06-09T11:25:12.121Z,1620
2017-06-09T11:26:22.404Z,1616
2017-06-09T11:27:32.379Z,1612
2017-06-09T11:28:42.657Z,1604
2017-06-09T11:29:52.962Z,1588
2017-06-09T11:31:03.489Z,1552
2017-06-09T11:32:13.773Z,1472
2017-06-09T11:33:24.043Z,1420
2017-06-09T11:34:34.334Z,1380
2017-06-09T11:35:44.615Z,1364
2017-06-09T11:36:55.156Z,1380
2017-06-09T11:38:05.430Z,1388
2017-06-09T11:39:15.398Z,1444
2017-06-09T11:40:25.381Z,1516
2017-06-09T11:41:35.677Z,1584
2017-06-09T11:42:46.213Z,1588
2017-06-09T11:43:56.500Z,1548
2017-06-09T11:45:06.790Z,1480
2017-06-09T11:46:16.765Z,1408
2017-06-09T11:47:27.065Z,1320
2017-06-09T11:48:37.617Z,1244
2017-06-09T11:49:47.592Z,1196
2017-06-09T11:50:57.553Z,1176
2017-06-09T11:52:07.521Z,1164
2017-06-09T11:53:17.798Z,1168
2017-06-09T11:54:28.338Z,1204
2017-06-09T11:55:38.626Z,1220
2017-06-09T11:56:48.934Z,1232
2017-06-09T11:57:58.600Z,1248
2017-06-09T11:59:08.573Z,1320
2017-06-09T12:00:18.855Z,1396
2017-06-09T12:01:29.132Z,1416
2017-06-09T12:02:39.407Z,1384
2017-06-09T12:03:48.758Z,1320
2017-06-09T12:04:59.038Z,1236
2017-06-09T12:06:09.578Z,1164
2017-06-09T12:07:19.866Z,80
2017-06-09T12:08:29.839Z,80
2017-06-09T12:09:40.112Z,80
2017-06-09T12:10:50.101Z,80
2017-06-09T12:12:00.628Z,76
2017-06-09T12:13:10.288Z,80
2017-06-09T12:14:20.578Z,80
2017-06-09T12:15:30.868Z,68
2017-06-09T12:16:41.141Z,60
2017-06-09T12:17:51.673Z,72
2017-06-09T12:19:01.971Z,76
2017-06-09T12:20:12.251Z,80
2017-06-09T12:21:22.239Z,80
2017-06-09T12:22:32.526Z,80
2017-06-09T12:23:43.092Z,80
2017-06-09T12:24:52.811Z,76
2017-06-09T12:26:02.468Z,76
2017-06-09T12:27:12.749Z,72
2017-06-09T12:28:23.045Z,68
2017-06-09T12:29:33.575Z,56
2017-06-09T12:30:43.858Z,56
2017-06-09T12:31:54.147Z,48
2017-06-09T12:33:04.428Z,48
2017-06-09T12:34:14.720Z,52
2017-06-09T12:35:25.292Z,60
2017-06-09T12:36:35.580Z,56
2017-06-09T12:37:45.866Z,64
2017-06-09T12:38:56.144Z,64
2017-06-09T12:40:06.432Z,64
2017-06-09T12:41:17.009Z,80
2017-06-09T12:42:27.286Z,80
2017-06-09T12:43:37.573Z,72
2017-06-09T12:44:47.854Z,64
2017-06-09T12:45:58.141Z,64
2017-06-09T12:47:08.684Z,72
2017-06-09T12:48:18.657Z,84
2017-06-09T12:49:28.948Z,84
2017-06-09T12:50:39.235Z,80
2017-06-09T12:51:49.522Z,80
2017-06-09T12:52:59.437Z,80
2017-06-09T12:54:09.423Z,80
2017-06-09T12:55:19.393Z,72
2017-06-09T12:56:29.369Z,64
2017-06-09T12:57:39.659Z,60
2017-06-09T12:58:50.191Z,52
2017-06-09T13:00:00.159Z,48
2017-06-09T13:01:10.136Z,52
2017-06-09T13:02:20.440Z,56
2017-06-09T13:03:30.715Z,68
2017-06-09T13:04:41.343Z,80
2017-06-09T13:05:51.625Z,80
2017-06-09T13:07:01.921Z,68
2017-06-09T13:08:11.896Z,76
2017-06-09T13:09:22.180Z,72
2017-06-09T13:10:32.727Z,76
2017-06-09T13:11:43.033Z,76
2017-06-09T13:12:53.309Z,76
2017-06-09T13:14:03.288Z,60
2017-06-09T13:15:13.585Z,60
2017-06-09T13:16:23.816Z,56
2017-06-09T13:17:33.471Z,52
2017-06-09T13:18:43.460Z,56
2017-06-09T13:19:53.758Z,60
2017-06-09T13:21:04.041Z,64
2017-06-09T13:22:14.574Z,60
2017-06-09T13:23:24.548Z,56
2017-06-09T13:24:34.836Z,68
2017-06-09T13:25:44.801Z,72
2017-06-09T13:26:54.778Z,76
2017-06-09T13:28:05.305Z,60
2017-06-09T13:29:15.288Z,64
2017-06-09T13:30:25.580Z,72
2017-06-09T13:31:35.859Z,72
2017-06-09T13:32:46.166Z,72
2017-06-09T13:33:56.697Z,68
2017-06-09T13:35:06.978Z,60
2017-06-09T13:36:17.260Z,68
2017-06-09T13:37:27.536Z,72
2017-06-09T13:38:37.820Z,76
2017-06-09T13:39:48.355Z,68
2017-06-09T13:40:58.324Z,72
2017-06-09T13:42:08.613Z,72
2017-06-09T13:43:18.923Z,68
2017-06-09T13:44:28.902Z,68
2017-06-09T13:45:39.437Z,68
2017-06-09T13:46:49.722Z,68
2017-06-09T13:48:00.010Z,60
2017-06-09T13:49:10.287Z,60
2017-06-09T13:50:20.265Z,60
2017-06-09T13:51:30.810Z,60
2017-06-09T13:52:41.091Z,56
2017-06-09T13:53:51.067Z,52
2017-06-09T13:55:01.363Z,56
2017-06-09T13:56:11.369Z,56
2017-06-09T13:57:21.629Z,52
2017-06-09T13:58:31.606Z,52
2017-06-09T13:59:41.896Z,56
2017-06-09T14:00:52.179Z,56
2017-06-09T14:02:02.462Z,60
2017-06-09T14:03:13.065Z,60
2017-06-09T14:04:22.735Z,56
2017-06-09T14:05:33.026Z,60
2017-06-09T14:06:43.319Z,60
2017-06-09T14:07:53.294Z,60
2017-06-09T14:09:03.827Z,64
2017-06-09T14:10:14.116Z,64
2017-06-09T14:11:24.089Z,60
2017-06-09T14:12:33.755Z,60
2017-06-09T14:13:44.034Z,60
2017-06-09T14:14:54.569Z,60
2017-06-09T14:16:04.857Z,60
2017-06-09T14:17:14.515Z,64
2017-06-09T14:18:24.818Z,60
2017-06-09T14:19:35.101Z,60
2017-06-09T14:20:45.004Z,60
2017-06-09T14:21:55.003Z,60
2017-06-09T14:23:05.291Z,60
2017-06-09T14:24:15.285Z,60
2017-06-09T14:25:25.267Z,64
2017-06-09T14:26:35.816Z,60
2017-06-09T14:27:46.104Z,60
2017-06-09T14:28:56.388Z,60
2017-06-09T14:30:06.676Z,60
2017-06-09T14:31:16.651Z,64
2017-06-09T14:32:27.247Z,64
2017-06-09T14:33:37.533Z,64
2017-06-09T14:34:47.519Z,64
2017-06-09T14:35:57.820Z,64
2017-06-09T14:37:07.792Z,60
2017-06-09T14:38:18.352Z,60
2017-06-09T14:39:28.323Z,64
2017-06-09T14:40:38.293Z,64
2017-06-09T14:41:48.569Z,60
2017-06-09T14:42:58.853Z,56
2017-06-09T14:44:09.103Z,56
2017-06-09T14:45:19.081Z,56
2017-06-09T14:46:29.063Z,60
2017-06-09T14:47:39.347Z,60
2017-06-09T14:48:49.630Z,60
2017-06-09T14:49:59.856Z,60
2017-06-09T14:51:10.138Z,60
2017-06-09T14:52:19.805Z,60
2017-06-09T14:53:30.082Z,60
2017-06-09T14:54:40.370Z,60
2017-06-09T14:55:50.902Z,60
2017-06-09T14:57:01.179Z,60
2017-06-09T14:58:11.468Z,60
2017-06-09T14:59:21.766Z,60
2017-06-09T15:00:32.036Z,56
2017-06-09T15:01:43.064Z,48
2017-06-09T15:02:52.727Z,56
2017-06-09T15:04:02.702Z,48
2017-06-09T15:05:12.996Z,52
2017-06-09T15:06:22.657Z,52
2017-06-09T15:07:33.189Z,56
2017-06-09T15:08:43.184Z,56
2017-06-09T15:09:53.467Z,52
2017-06-09T15:11:03.637Z,52
2017-06-09T15:12:13.932Z,56
2017-06-09T15:13:24.461Z,52
2017-06-09T15:14:34.744Z,52
2017-06-09T15:15:45.028Z,56
2017-06-09T15:16:55.337Z,52
2017-06-09T15:18:05.628Z,56
2017-06-09T15:19:16.163Z,56
2017-06-09T15:20:26.452Z,52
2017-06-09T15:21:36.749Z,52
2017-06-09T15:22:47.116Z,52
2017-06-09T15:23:57.413Z,48
2017-06-09T15:25:07.945Z,48
2017-06-09T15:26:18.245Z,48
2017-06-09T15:27:28.218Z,48
2017-06-09T15:28:38.192Z,48
2017-06-09T15:29:47.843Z,48
2017-06-09T15:30:58.380Z,44
2017-06-09T15:32:08.667Z,44
2017-06-09T15:33:18.953Z,44
2017-06-09T15:34:28.927Z,44
2017-06-09T15:35:39.323Z,44
2017-06-09T15:36:49.860Z,44
2017-06-09T15:38:00.150Z,44
2017-06-09T15:39:10.121Z,44
2017-06-09T15:40:20.094Z,44
2017-06-09T15:41:30.390Z,44
2017-06-09T15:42:40.929Z,48
2017-06-09T15:43:51.211Z,48
2017-06-09T15:45:01.528Z,48
2017-06-09T15:46:11.856Z,44
2017-06-09T15:47:22.148Z,44
2017-06-09T15:48:32.723Z,44
2017-06-09T15:49:43.004Z,44
2017-06-09T15:50:52.989Z,44
2017-06-09T15:52:03.273Z,44
2017-06-09T15:53:13.572Z,40
2017-06-09T15:54:24.122Z,40
2017-06-09T15:55:34.411Z,40
2017-06-09T15:56:44.384Z,40
2017-06-09T15:57:54.668Z,36
2017-06-09T15:59:04.960Z,36
2017-06-09T16:00:15.489Z,36
2017-06-09T16:01:25.805Z,36
2017-06-09T16:02:35.770Z,36
2017-06-09T16:03:45.731Z,32
2017-06-09T16:04:56.021Z,36
2017-06-09T16:06:06.294Z,36
2017-06-09T16:07:16.574Z,36
2017-06-09T16:08:26.880Z,36
2017-06-09T16:09:37.158Z,32
2017-06-09T16:10:47.446Z,36
2017-06-09T16:11:58.044Z,36